Overview Statistics Trail Chart Weather Telemetry Raw packets
 

This is the latest recevied weather packets stored in our database for station/object KC1IUC-15. If no packets are shown the sender has not sent any weather packets the latest 10 day(s).

<< 11 12 13 14 15 16 17 >>
Time Temp. Humidity Pressure Rain* Wind** Luminosity Snow
1788528904 24.44° C 76% 1010.3 hPa 0 mm - 211 W/m² -
1788528604 24.44° C 83% 1009.9 hPa 0 mm - 257 W/m² -
1788528304 24.44° C 81% 1010.3 hPa 0 mm - 108 W/m² -
1788528004 23.89° C 84% 1009.9 hPa 0 mm - 98 W/m² -
1788527704 23.33° C 86% 1009.9 hPa 0 mm - 205 W/m² -
1788527404 23.33° C 87% 1010.3 hPa 0 mm - 162 W/m² -
1788527104 23.33° C 86% 1009.9 hPa 0 mm - 48 W/m² -
1788526804 22.78° C 90% 1009.9 hPa 0 mm - 84 W/m² -
1788526504 22.78° C 91% 1009.9 hPa 0 mm - 44 W/m² -
1788526204 22.78° C 92% 1009.9 hPa 0 mm - 40 W/m² -
1788525904 22.22° C 95% 1010.3 hPa 0 mm - 44 W/m² -
1788525604 21.67° C 99% 1009.9 hPa 0 mm - 49 W/m² -
1788525304 21.67° C 99% 1009.9 hPa 0 mm - 39 W/m² -
1788525004 21.67° C 99% 1009.9 hPa 0 mm - 38 W/m² -
1788524704 21.11° C 99% 1010.3 hPa 0 mm - 37 W/m² -
1788524404 21.11° C 99% 1009.9 hPa 0 mm - 37 W/m² -
1788524104 21.11° C 98% 1009.9 hPa 0 mm - 43 W/m² -
1788523804 20.56° C 99% 1009.9 hPa 0 mm - 36 W/m² -
1788523504 20.56° C 99% 1009.9 hPa 0 mm - 35 W/m² -
1788523204 20.56° C 99% 1009.9 hPa 0 mm - 40 W/m² -
1788522904 20° C 99% 1009.9 hPa 0 mm - 43 W/m² -
1788522604 20° C 99% 1009.9 hPa 0 mm - 31 W/m² -
1788522304 20° C 99% 1009.9 hPa 0 mm - 47 W/m² -
1788522004 20° C 99% 1009.6 hPa 0 mm - 39 W/m² -
1788521704 20° C 99% 1009.9 hPa 0 mm - 30 W/m² -

* Rain latest hour (hover to see other rain measurements)
** Current wind speed in m/s (hover to see current wind gust speed)